createdAt,value
2018-04-16T00:00:41.583Z,10.00
2018-04-16T00:05:43.213Z,10.60
2018-04-16T00:10:45.556Z,10.37
2018-04-16T00:15:47.097Z,9.53
2018-04-16T00:20:48.628Z,8.40
2018-04-16T00:25:50.161Z,8.70
2018-04-16T00:30:51.706Z,7.83
2018-04-16T00:35:59.268Z,7.00
2018-04-16T00:41:06.894Z,8.13
2018-04-16T00:46:15.198Z,7.30
2018-04-16T00:51:22.763Z,7.00
2018-04-16T00:56:30.357Z,7.50
2018-04-16T01:01:37.900Z,6.77
2018-04-16T01:06:45.433Z,6.13
2018-04-16T01:11:52.910Z,7.00
2018-04-16T01:17:00.581Z,6.47
2018-04-16T01:22:08.268Z,6.87
2018-04-16T01:27:16.007Z,7.67
2018-04-16T01:32:24.283Z,7.40
2018-04-16T01:37:31.940Z,7.90
2018-04-16T01:42:39.520Z,7.90
2018-04-16T01:47:47.024Z,7.50
2018-04-16T02:08:54.246Z,8.77
2018-04-16T02:14:02.523Z,7.63
2018-04-16T02:19:10.069Z,8.43
2018-04-16T02:24:17.823Z,8.60
2018-04-16T02:29:25.531Z,7.53
2018-04-16T02:34:33.120Z,6.87
2018-04-16T02:39:41.436Z,6.73
2018-04-16T02:44:49.657Z,8.40
2018-04-16T02:49:57.950Z,7.83
2018-04-16T02:55:05.565Z,8.23
2018-04-16T03:00:13.158Z,8.13
2018-04-16T03:05:20.692Z,8.33
2018-04-16T03:10:28.218Z,7.43
2018-04-16T03:15:35.828Z,9.27
2018-04-16T03:20:43.449Z,9.60
2018-04-16T03:25:51.907Z,8.47
2018-04-16T03:30:59.445Z,10.87
2018-04-16T03:36:06.951Z,10.80
2018-04-16T03:41:14.413Z,9.60
2018-04-16T03:46:21.875Z,11.47
2018-04-16T03:51:26.213Z,9.87
2018-04-16T03:56:28.540Z,8.20
2018-04-16T04:01:30.412Z,7.83
2018-04-16T04:06:31.967Z,8.23
2018-04-16T04:11:34.248Z,11.60
2018-04-16T04:16:37.463Z,12.07
2018-04-16T04:21:39.766Z,10.97
2018-04-16T04:42:45.122Z,8.93
2018-04-16T04:47:46.896Z,10.47
2018-04-16T04:52:48.495Z,11.10
2018-04-16T04:57:50.048Z,11.67
2018-04-16T05:02:51.581Z,8.10
2018-04-16T05:07:53.857Z,8.47
2018-04-16T05:12:56.154Z,10.00
2018-04-16T05:17:58.441Z,8.70
2018-04-16T05:23:00.776Z,8.43
2018-04-16T05:28:02.312Z,8.90
2018-04-16T05:33:03.856Z,7.30
2018-04-16T05:38:06.054Z,6.73
2018-04-16T05:43:07.555Z,5.17
2018-04-16T05:48:09.104Z,5.30
2018-04-16T05:53:10.679Z,5.47
2018-04-16T05:58:12.223Z,4.00
2018-04-16T06:03:13.764Z,6.17
2018-04-16T06:08:15.496Z,5.43
2018-04-16T06:13:17.124Z,4.50
2018-04-16T06:18:18.642Z,6.00
2018-04-16T06:23:20.199Z,5.63
2018-04-16T06:28:21.765Z,5.50
2018-04-16T06:33:23.335Z,5.80
2018-04-16T06:38:25.023Z,4.80
2018-04-16T06:43:26.532Z,5.17
2018-04-16T06:48:28.849Z,5.60
2018-04-16T06:53:30.409Z,9.20
2018-04-16T06:58:31.949Z,9.10
2018-04-16T07:03:34.299Z,5.00
2018-04-16T07:08:35.849Z,4.87
2018-04-16T07:13:37.362Z,5.83
2018-04-16T07:18:39.617Z,5.27
2018-04-16T07:23:41.231Z,5.50
2018-04-16T07:28:43.549Z,6.00
2018-04-16T07:33:45.076Z,19.70
2018-04-16T07:38:47.335Z,14.10
2018-04-16T07:43:48.902Z,6.47
2018-04-16T07:48:50.528Z,6.60
2018-04-16T07:53:52.071Z,8.07
2018-04-16T07:58:54.343Z,6.60
2018-04-16T08:03:56.625Z,11.53
2018-04-16T08:08:58.246Z,6.30
2018-04-16T08:13:59.717Z,6.80
2018-04-16T08:19:01.259Z,6.60
2018-04-16T08:24:02.749Z,6.77
2018-04-16T08:29:04.302Z,6.93
2018-04-16T08:34:05.835Z,7.93
2018-04-16T08:39:08.135Z,8.30
2018-04-16T08:44:10.416Z,8.23
2018-04-16T08:49:12.716Z,6.67
2018-04-16T08:54:14.310Z,6.20
2018-04-16T08:59:15.835Z,5.80
2018-04-16T09:04:18.127Z,14.10
2018-04-16T09:09:20.435Z,6.13
2018-04-16T09:14:22.074Z,6.10
2018-04-16T09:19:24.334Z,9.60
2018-04-16T09:24:25.871Z,9.03
2018-04-16T09:29:27.339Z,35.63
2018-04-16T09:34:28.887Z,23.07
2018-04-16T09:39:30.452Z,5.37
2018-04-16T09:44:32.108Z,14.83
2018-04-16T09:49:34.525Z,5.30
2018-04-16T09:54:36.088Z,19.43
2018-04-16T09:59:37.602Z,8.10
2018-04-16T10:04:39.135Z,5.13
2018-04-16T10:09:40.679Z,4.57
2018-04-16T10:14:42.239Z,3.70
2018-04-16T10:19:44.552Z,4.07
2018-04-16T10:24:46.100Z,4.90
2018-04-16T10:29:54.527Z,3.60
2018-04-16T10:34:56.795Z,2.97
2018-04-16T10:39:59.242Z,3.60
2018-04-16T10:45:00.726Z,3.33
2018-04-16T10:50:02.287Z,3.50
2018-04-16T10:55:03.869Z,2.67
2018-04-16T11:00:05.510Z,3.30
2018-04-16T11:05:07.085Z,4.00
2018-04-16T11:10:08.645Z,3.83
2018-04-16T11:15:10.213Z,4.07
2018-04-16T11:20:11.776Z,3.50
2018-04-16T11:25:13.434Z,3.33
2018-04-16T11:30:14.955Z,3.40
2018-04-16T11:35:16.487Z,2.87
2018-04-16T11:40:18.238Z,2.80
2018-04-16T11:45:19.782Z,2.57
2018-04-16T11:50:22.094Z,3.20
2018-04-16T11:55:23.690Z,2.80
2018-04-16T12:00:25.205Z,4.20
2018-04-16T12:05:27.556Z,3.87
2018-04-16T12:10:29.113Z,3.73
2018-04-16T12:15:30.644Z,2.80
2018-04-16T12:20:32.340Z,3.03
2018-04-16T12:25:34.094Z,2.83
2018-04-16T12:30:35.640Z,3.13
2018-04-16T12:35:37.938Z,2.63
2018-04-16T12:40:39.459Z,2.30
2018-04-16T12:45:41.000Z,3.20
2018-04-16T12:50:42.743Z,4.27
2018-04-16T12:55:45.061Z,4.40
2018-04-16T13:00:46.636Z,9.70
2018-04-16T13:05:48.236Z,2.57
2018-04-16T13:10:49.905Z,2.77
2018-04-16T13:15:51.447Z,2.37
2018-04-16T13:20:52.967Z,2.50
2018-04-16T13:25:55.439Z,2.63
2018-04-16T13:30:57.048Z,1.80
2018-04-16T13:35:58.723Z,2.40
2018-04-16T13:41:00.309Z,1.83
2018-04-16T13:46:01.810Z,2.00
2018-04-16T13:51:03.327Z,2.00
2018-04-16T13:56:04.870Z,2.10
2018-04-16T14:01:07.163Z,1.97
2018-04-16T14:06:08.953Z,2.20
2018-04-16T14:11:10.583Z,1.90
2018-04-16T14:16:12.208Z,2.10
2018-04-16T14:21:13.799Z,2.70
2018-04-16T14:26:15.331Z,2.10
2018-04-16T14:31:16.920Z,5.30
2018-04-16T14:36:18.458Z,2.20
2018-04-16T14:41:20.112Z,1.97
2018-04-16T14:46:22.449Z,2.20
2018-04-16T14:51:23.953Z,5.50
2018-04-16T14:56:26.231Z,3.37
2018-04-16T15:01:27.779Z,2.93
2018-04-16T15:06:29.314Z,10.53
2018-04-16T15:11:30.910Z,1.80
2018-04-16T15:16:32.635Z,3.23
2018-04-16T15:21:34.891Z,2.90
2018-04-16T15:26:36.689Z,2.00
2018-04-16T15:31:38.256Z,1.97
2018-04-16T15:36:40.104Z,1.77
2018-04-16T15:41:41.652Z,2.07
2018-04-16T15:46:43.203Z,2.10
2018-04-16T15:51:44.694Z,2.10
2018-04-16T15:56:46.221Z,2.00
2018-04-16T16:01:47.752Z,4.37
2018-04-16T16:06:49.296Z,1.97
2018-04-16T16:11:51.005Z,1.80
2018-04-16T16:16:53.401Z,2.50
2018-04-16T16:21:55.025Z,2.13
2018-04-16T16:26:56.766Z,2.37
2018-04-16T16:31:58.522Z,2.17
2018-04-16T16:37:00.941Z,2.27
2018-04-16T16:42:02.500Z,3.40
2018-04-16T16:47:04.064Z,3.10
2018-04-16T16:52:05.609Z,2.20
2018-04-16T16:57:07.231Z,2.00
2018-04-16T17:02:08.819Z,2.20
2018-04-16T17:07:10.405Z,2.20
2018-04-16T17:12:12.711Z,2.73
2018-04-16T17:17:14.332Z,2.80
2018-04-16T17:22:15.876Z,3.30
2018-04-16T17:27:17.397Z,2.77
2018-04-16T17:32:19.855Z,3.07
2018-04-16T17:37:21.466Z,3.17
2018-04-16T17:42:23.873Z,2.90
2018-04-16T17:47:25.467Z,2.47
2018-04-16T17:52:27.116Z,2.70
2018-04-16T17:57:28.864Z,2.83
2018-04-16T18:02:31.203Z,2.77
2018-04-16T18:07:32.880Z,3.77
2018-04-16T18:12:34.446Z,5.07
2018-04-16T18:17:42.984Z,2.90
2018-04-16T18:22:44.580Z,3.23
2018-04-16T18:27:47.210Z,4.13
2018-04-16T18:32:48.857Z,3.80
2018-04-16T18:37:51.201Z,4.43
2018-04-16T18:42:52.793Z,4.50
2018-04-16T18:47:55.164Z,4.30
2018-04-16T18:52:56.725Z,5.30
2018-04-16T18:57:58.303Z,4.73
2018-04-16T19:02:59.832Z,5.10
2018-04-16T19:08:01.402Z,6.00
2018-04-16T19:13:03.246Z,6.20
2018-04-16T19:18:05.551Z,6.67
2018-04-16T19:23:07.292Z,6.60
2018-04-16T19:28:15.562Z,7.37
2018-04-16T19:33:23.365Z,7.27
2018-04-16T19:38:25.328Z,7.20
2018-04-16T19:43:26.907Z,6.60
2018-04-16T20:04:27.110Z,5.03
2018-04-16T20:09:28.815Z,5.90
2018-04-16T20:14:30.329Z,5.43
2018-04-16T20:19:31.933Z,5.23
2018-04-16T20:24:34.985Z,5.60
2018-04-16T20:29:36.856Z,5.43
2018-04-16T20:34:38.450Z,5.73
2018-04-16T20:39:40.024Z,6.10
2018-04-16T20:44:41.536Z,4.87
2018-04-16T20:49:43.120Z,4.90
2018-04-16T20:54:44.797Z,5.83
2018-04-16T20:59:46.534Z,5.20
2018-04-16T21:04:48.872Z,5.77
2018-04-16T21:09:50.457Z,6.47
2018-04-16T21:14:52.060Z,5.73
2018-04-16T21:19:53.833Z,6.53
2018-04-16T21:24:55.405Z,6.60
2018-04-16T21:29:56.984Z,8.10
2018-04-16T21:34:58.681Z,7.57
2018-04-16T21:40:00.259Z,8.23
2018-04-16T21:45:01.866Z,7.70
2018-04-16T21:50:04.164Z,7.63
2018-04-16T21:55:06.503Z,6.90
2018-04-16T22:00:08.039Z,7.23
2018-04-16T22:05:09.596Z,8.50
2018-04-16T22:10:11.350Z,8.60
2018-04-16T22:15:13.679Z,8.60
2018-04-16T22:20:15.268Z,7.37
2018-04-16T22:25:16.833Z,8.23
2018-04-16T22:30:18.401Z,7.63
2018-04-16T22:35:19.979Z,7.87
2018-04-16T22:40:21.532Z,7.83
2018-04-16T22:45:23.169Z,7.63
2018-04-16T22:50:24.868Z,9.93
2018-04-16T22:55:26.413Z,9.10
2018-04-16T23:00:27.975Z,8.13
2018-04-16T23:05:29.526Z,8.43
2018-04-16T23:10:31.791Z,10.10
2018-04-16T23:15:33.378Z,9.80
2018-04-16T23:20:35.660Z,10.30
2018-04-16T23:25:37.965Z,11.40
2018-04-16T23:30:39.525Z,9.90
2018-04-16T23:35:41.889Z,9.70
2018-04-16T23:40:43.466Z,10.60
2018-04-16T23:45:45.098Z,10.23
2018-04-16T23:50:46.655Z,9.97
2018-04-16T23:55:48.281Z,10.33
